createdAt,value
2019-04-30T00:08:48.112Z,81.61
2019-04-30T00:18:59.906Z,79.13
2019-04-30T00:28:51.415Z,79.00
2019-04-30T00:38:54.827Z,79.10
2019-04-30T00:49:08.534Z,77.09
2019-04-30T00:59:02.714Z,81.26
2019-04-30T01:09:05.436Z,79.02
2019-04-30T01:19:05.701Z,81.27
2019-04-30T01:29:07.680Z,80.27
2019-04-30T01:39:09.455Z,79.91
2019-04-30T01:49:10.239Z,78.24
2019-04-30T01:59:10.853Z,78.76
2019-04-30T02:09:11.594Z,79.70
2019-04-30T02:19:12.248Z,77.00
2019-04-30T02:29:12.888Z,79.23
2019-04-30T02:39:13.612Z,78.07
2019-04-30T02:49:16.527Z,76.33
2019-04-30T02:59:20.070Z,74.72
2019-04-30T03:09:20.432Z,74.47
2019-04-30T03:19:21.234Z,74.17
2019-04-30T03:29:23.931Z,74.18
2019-04-30T03:39:24.428Z,72.94
2019-04-30T03:49:25.130Z,75.17
2019-04-30T03:59:26.002Z,73.75
2019-04-30T04:09:26.673Z,76.15
2019-04-30T04:19:29.253Z,76.57
2019-04-30T04:29:30.019Z,76.92
2019-04-30T04:39:30.742Z,74.25
2019-04-30T04:49:31.413Z,74.88
2019-04-30T04:59:32.686Z,73.43
2019-04-30T05:09:33.387Z,73.63
2019-04-30T05:19:34.118Z,75.81
2019-04-30T05:29:34.915Z,79.42
2019-04-30T05:39:35.591Z,78.00
2019-04-30T05:49:36.278Z,77.69
2019-04-30T05:59:38.713Z,77.68
2019-04-30T06:09:39.651Z,75.71
2019-04-30T06:19:45.175Z,74.59
2019-04-30T06:29:45.926Z,71.12
2019-04-30T06:39:46.717Z,66.56
2019-04-30T06:49:48.882Z,64.48
2019-04-30T06:59:51.609Z,62.31
2019-04-30T07:09:58.039Z,58.75
2019-04-30T07:19:56.861Z,57.27
2019-04-30T07:29:59.576Z,58.02
2019-04-30T07:40:09.100Z,58.49
2019-04-30T07:50:11.297Z,56.32
2019-04-30T08:00:12.330Z,57.04
2019-04-30T08:10:14.171Z,51.54
2019-04-30T08:20:15.999Z,48.71
2019-04-30T08:30:23.895Z,46.94
2019-04-30T08:40:19.327Z,47.22
2019-04-30T08:50:20.980Z,46.46
2019-04-30T09:00:22.035Z,47.85
2019-04-30T09:10:22.789Z,45.68
2019-04-30T09:20:24.545Z,43.39
2019-04-30T09:30:25.227Z,39.55
2019-04-30T09:40:26.086Z,39.36
2019-04-30T09:50:28.644Z,39.70
2019-04-30T10:00:29.665Z,40.88
2019-04-30T10:10:30.259Z,37.24
2019-04-30T10:20:41.941Z,38.06
2019-04-30T10:30:42.653Z,38.04
2019-04-30T10:40:43.454Z,38.32
2019-04-30T10:50:44.157Z,35.55
2019-04-30T11:00:45.843Z,38.16
2019-04-30T11:10:46.531Z,40.24
2019-04-30T11:20:49.785Z,37.02
2019-04-30T11:30:50.823Z,37.23
2019-04-30T11:40:51.655Z,37.15
2019-04-30T11:50:52.411Z,37.05
2019-04-30T12:00:53.051Z,37.84
2019-04-30T12:10:53.771Z,36.10
2019-04-30T12:20:54.440Z,35.96
2019-04-30T12:30:55.147Z,36.12
2019-04-30T12:40:55.828Z,36.57
2019-04-30T12:50:56.490Z,36.04
2019-04-30T13:00:59.113Z,37.12
2019-04-30T13:11:03.923Z,36.87
2019-04-30T13:21:05.813Z,35.28
2019-04-30T13:31:06.650Z,38.91
2019-04-30T13:41:08.880Z,37.92
2019-04-30T13:51:09.719Z,38.73
2019-04-30T14:01:10.627Z,37.83
2019-04-30T14:11:11.243Z,38.51
2019-04-30T14:21:14.215Z,37.40
2019-04-30T14:31:15.000Z,38.62
2019-04-30T14:41:16.281Z,37.98
2019-04-30T14:51:17.117Z,37.77
2019-04-30T15:01:19.410Z,37.34
2019-04-30T15:11:20.147Z,37.72
2019-04-30T15:21:21.059Z,39.17
2019-04-30T15:31:21.894Z,39.64
2019-04-30T15:41:22.592Z,38.94
2019-04-30T15:51:24.265Z,40.17
2019-04-30T16:01:24.952Z,42.79
2019-04-30T16:11:29.434Z,40.80
2019-04-30T16:21:30.669Z,40.80
2019-04-30T16:31:31.420Z,42.11
2019-04-30T16:41:32.239Z,43.38
2019-04-30T16:51:34.041Z,40.81
2019-04-30T17:01:36.799Z,40.74
2019-04-30T17:11:38.624Z,43.30
2019-04-30T17:21:39.533Z,43.51
2019-04-30T17:31:43.214Z,41.41
2019-04-30T17:41:43.946Z,41.61
2019-04-30T17:51:44.679Z,41.61
2019-04-30T18:01:45.337Z,45.94
2019-04-30T18:11:46.028Z,45.97
2019-04-30T18:21:48.617Z,48.75
2019-04-30T18:31:49.749Z,50.43
2019-04-30T18:41:50.436Z,51.25
2019-04-30T18:51:51.205Z,53.25
2019-04-30T19:01:51.880Z,57.00
2019-04-30T19:11:52.583Z,57.85
2019-04-30T19:21:53.349Z,61.18
2019-04-30T19:31:54.100Z,62.20
2019-04-30T19:41:54.771Z,62.60
2019-04-30T19:52:06.219Z,62.78
2019-04-30T20:01:59.526Z,66.14
2019-04-30T20:12:00.325Z,65.81
2019-04-30T20:22:01.130Z,66.70
2019-04-30T20:32:01.769Z,67.62
2019-04-30T20:42:03.499Z,67.51
2019-04-30T20:52:05.345Z,67.79
2019-04-30T21:02:05.974Z,67.70
2019-04-30T21:12:08.852Z,68.26
2019-04-30T21:22:09.577Z,69.40
2019-04-30T21:32:10.375Z,69.17
2019-04-30T21:42:11.104Z,69.22
2019-04-30T21:52:11.801Z,69.77
2019-04-30T22:02:12.580Z,70.22
2019-04-30T22:12:13.372Z,70.42
2019-04-30T22:22:14.013Z,70.60
2019-04-30T22:32:16.436Z,73.33
2019-04-30T22:42:21.980Z,72.02
2019-04-30T22:52:23.722Z,72.22
2019-04-30T23:02:25.328Z,71.85
2019-04-30T23:12:26.046Z,74.79
2019-04-30T23:22:26.705Z,73.76
2019-04-30T23:32:27.441Z,74.13
2019-04-30T23:42:29.194Z,72.05
2019-04-30T23:52:29.997Z,72.09
